<?xml version="1.0" encoding="UTF-8" standalone="no" ?>
<gpx xmlns="http://www.topografix.com/GPX/1/1" xmlns:xsi="http://www.w3.org/2001/XMLSchema-instance" xsi:schemaLocation="http://www.topografix.com/GPX/1/1 http://www.topografix.com/GPX/1/1/gpx.xsd" version="1.1" creator="VisuGPX - https://www.visugpx.com">
  <metadata>
    <name>CP trace 1</name>
  </metadata>
  <trk>
    <name><![CDATA[trace nmr 1]]></name>
    <trkseg>
      <trkpt lat="47.08301" lon="6.62344">
        <ele>951.4</ele>
        <time>2019-08-21T19:45:37Z</time>
      </trkpt>
      <trkpt lat="47.08278" lon="6.62281">
        <ele>957.9</ele>
        <time>2019-08-21T19:45:57Z</time>
      </trkpt>
      <trkpt lat="47.08276" lon="6.62272">
        <ele>958.8</ele>
        <time>2019-08-21T19:46:00Z</time>
      </trkpt>
      <trkpt lat="47.0827" lon="6.62249">
        <ele>960.6</ele>
        <time>2019-08-21T19:46:08Z</time>
      </trkpt>
      <trkpt lat="47.08258" lon="6.6222">
        <ele>962.6</ele>
        <time>2019-08-21T19:46:20Z</time>
      </trkpt>
      <trkpt lat="47.08254" lon="6.62205">
        <ele>963.7</ele>
        <time>2019-08-21T19:46:25Z</time>
      </trkpt>
      <trkpt lat="47.08253" lon="6.622">
        <ele>964</ele>
        <time>2019-08-21T19:46:27Z</time>
      </trkpt>
      <trkpt lat="47.08252" lon="6.62198">
        <ele>964.1</ele>
        <time>2019-08-21T19:46:28Z</time>
      </trkpt>
      <trkpt lat="47.0825" lon="6.62194">
        <ele>964.4</ele>
        <time>2019-08-21T19:46:30Z</time>
      </trkpt>
      <trkpt lat="47.08249" lon="6.62189">
        <ele>964.7</ele>
        <time>2019-08-21T19:46:32Z</time>
      </trkpt>
      <trkpt lat="47.08247" lon="6.6218">
        <ele>965.3</ele>
        <time>2019-08-21T19:46:35Z</time>
      </trkpt>
      <trkpt lat="47.08246" lon="6.62177">
        <ele>965.5</ele>
        <time>2019-08-21T19:46:36Z</time>
      </trkpt>
      <trkpt lat="47.08239" lon="6.62159">
        <ele>967</ele>
        <time>2019-08-21T19:46:43Z</time>
      </trkpt>
      <trkpt lat="47.08231" lon="6.62138">
        <ele>968.5</ele>
        <time>2019-08-21T19:46:51Z</time>
      </trkpt>
      <trkpt lat="47.08209" lon="6.62071">
        <ele>973.1</ele>
        <time>2019-08-21T19:47:16Z</time>
      </trkpt>
      <trkpt lat="47.08207" lon="6.62066">
        <ele>973.4</ele>
        <time>2019-08-21T19:47:18Z</time>
      </trkpt>
      <trkpt lat="47.08203" lon="6.62054">
        <ele>973.9</ele>
        <time>2019-08-21T19:47:22Z</time>
      </trkpt>
      <trkpt lat="47.08172" lon="6.61982">
        <ele>978.1</ele>
        <time>2019-08-21T19:47:49Z</time>
      </trkpt>
      <trkpt lat="47.08154" lon="6.61947">
        <ele>980.6</ele>
        <time>2019-08-21T19:48:02Z</time>
      </trkpt>
      <trkpt lat="47.08114" lon="6.61857">
        <ele>986.1</ele>
        <time>2019-08-21T19:48:36Z</time>
      </trkpt>
      <trkpt lat="47.08097" lon="6.61794">
        <ele>988.8</ele>
        <time>2019-08-21T19:48:57Z</time>
      </trkpt>
      <trkpt lat="47.0809" lon="6.61774">
        <ele>996</ele>
        <time>2019-08-21T19:49:32Z</time>
      </trkpt>
      <trkpt lat="47.08086" lon="6.61752">
        <ele>995.3</ele>
        <time>2019-08-21T19:50:06Z</time>
      </trkpt>
      <trkpt lat="47.08076" lon="6.61698">
        <ele>995.2</ele>
        <time>2019-08-21T19:50:27Z</time>
      </trkpt>
      <trkpt lat="47.0806" lon="6.6162">
        <ele>1004</ele>
        <time>2019-08-21T19:50:40Z</time>
      </trkpt>
      <trkpt lat="47.08042" lon="6.61577">
        <ele>1007.1</ele>
        <time>2019-08-21T19:51:02Z</time>
      </trkpt>
      <trkpt lat="47.08022" lon="6.61551">
        <ele>1010.8</ele>
        <time>2019-08-21T19:51:08Z</time>
      </trkpt>
      <trkpt lat="47.07969" lon="6.61472">
        <ele>1016.5</ele>
        <time>2019-08-21T19:51:16Z</time>
      </trkpt>
      <trkpt lat="47.07939" lon="6.61421">
        <ele>1019.2</ele>
        <time>2019-08-21T19:51:20Z</time>
      </trkpt>
      <trkpt lat="47.0791" lon="6.614">
        <ele>1015.6</ele>
        <time>2019-08-21T19:51:22Z</time>
      </trkpt>
      <trkpt lat="47.07899" lon="6.6139">
        <ele>1015.1</ele>
        <time>2019-08-21T19:51:29Z</time>
      </trkpt>
      <trkpt lat="47.07894" lon="6.61386">
        <ele>1015.1</ele>
        <time>2019-08-21T19:51:40Z</time>
      </trkpt>
      <trkpt lat="47.07877" lon="6.61378">
        <ele>1014.1</ele>
        <time>2019-08-21T19:51:59Z</time>
      </trkpt>
      <trkpt lat="47.07849" lon="6.61374">
        <ele>1012.6</ele>
        <time>2019-08-21T19:52:16Z</time>
      </trkpt>
      <trkpt lat="47.07806" lon="6.61326">
        <ele>1018.6</ele>
        <time>2019-08-21T19:52:42Z</time>
      </trkpt>
      <trkpt lat="47.07769" lon="6.61292">
        <ele>1022.8</ele>
        <time>2019-08-21T19:52:46Z</time>
      </trkpt>
      <trkpt lat="47.07729" lon="6.61251">
        <ele>1032.6</ele>
        <time>2019-08-21T19:52:48Z</time>
      </trkpt>
      <trkpt lat="47.07722" lon="6.61244">
        <ele>1032.5</ele>
        <time>2019-08-21T19:52:50Z</time>
      </trkpt>
      <trkpt lat="47.07717" lon="6.6124">
        <ele>1033.5</ele>
        <time>2019-08-21T19:52:58Z</time>
      </trkpt>
      <trkpt lat="47.07711" lon="6.61235">
        <ele>1035.4</ele>
        <time>2019-08-21T19:53:07Z</time>
      </trkpt>
      <trkpt lat="47.07677" lon="6.61215">
        <ele>1034.7</ele>
        <time>2019-08-21T19:53:13Z</time>
      </trkpt>
      <trkpt lat="47.07619" lon="6.61201">
        <ele>1027.5</ele>
        <time>2019-08-21T19:53:14Z</time>
      </trkpt>
      <trkpt lat="47.07587" lon="6.61195">
        <ele>1020.1</ele>
        <time>2019-08-21T19:53:22Z</time>
      </trkpt>
      <trkpt lat="47.07553" lon="6.61176">
        <ele>1016.8</ele>
        <time>2019-08-21T19:54:13Z</time>
      </trkpt>
      <trkpt lat="47.07515" lon="6.61134">
        <ele>1027</ele>
        <time>2019-08-21T19:54:22Z</time>
      </trkpt>
      <trkpt lat="47.07501" lon="6.6111">
        <ele>1029</ele>
        <time>2019-08-21T19:54:49Z</time>
      </trkpt>
      <trkpt lat="47.07488" lon="6.6108">
        <ele>1021.4</ele>
        <time>2019-08-21T19:55:04Z</time>
      </trkpt>
      <trkpt lat="47.07474" lon="6.61056">
        <ele>1026.6</ele>
        <time>2019-08-21T19:55:20Z</time>
      </trkpt>
      <trkpt lat="47.07469" lon="6.61031">
        <ele>1024.1</ele>
        <time>2019-08-21T19:55:44Z</time>
      </trkpt>
      <trkpt lat="47.07462" lon="6.61016">
        <ele>1024.6</ele>
        <time>2019-08-21T19:56:30Z</time>
      </trkpt>
      <trkpt lat="47.07442" lon="6.60974">
        <ele>1028.7</ele>
        <time>2019-08-21T19:57:09Z</time>
      </trkpt>
      <trkpt lat="47.0743" lon="6.60948">
        <ele>1031.9</ele>
        <time>2019-08-21T19:57:42Z</time>
      </trkpt>
      <trkpt lat="47.07424" lon="6.60934">
        <ele>1031.9</ele>
        <time>2019-08-21T19:57:49Z</time>
      </trkpt>
      <trkpt lat="47.07401" lon="6.60882">
        <ele>1039</ele>
        <time>2019-08-21T19:57:59Z</time>
      </trkpt>
      <trkpt lat="47.07396" lon="6.60863">
        <ele>1036.4</ele>
        <time>2019-08-21T19:58:09Z</time>
      </trkpt>
      <trkpt lat="47.07387" lon="6.60846">
        <ele>1044</ele>
        <time>2019-08-21T19:58:29Z</time>
      </trkpt>
      <trkpt lat="47.07377" lon="6.60827">
        <ele>1051.1</ele>
        <time>2019-08-21T19:58:31Z</time>
      </trkpt>
      <trkpt lat="47.07358" lon="6.60819">
        <ele>1049</ele>
        <time>2019-08-21T19:58:50Z</time>
      </trkpt>
      <trkpt lat="47.0734" lon="6.60801">
        <ele>1045.7</ele>
        <time>2019-08-21T19:58:58Z</time>
      </trkpt>
      <trkpt lat="47.07332" lon="6.60782">
        <ele>1045.4</ele>
        <time>2019-08-21T19:59:14Z</time>
      </trkpt>
      <trkpt lat="47.07315" lon="6.60753">
        <ele>1049.8</ele>
        <time>2019-08-21T19:59:31Z</time>
      </trkpt>
      <trkpt lat="47.07293" lon="6.60734">
        <ele>1051.7</ele>
        <time>2019-08-21T19:59:38Z</time>
      </trkpt>
      <trkpt lat="47.07255" lon="6.60664">
        <ele>1053.9</ele>
        <time>2019-08-21T19:59:58Z</time>
      </trkpt>
      <trkpt lat="47.07245" lon="6.60642">
        <ele>1054.3</ele>
        <time>2019-08-21T20:00:32Z</time>
      </trkpt>
      <trkpt lat="47.0723" lon="6.60621">
        <ele>1054.5</ele>
        <time>2019-08-21T20:00:48Z</time>
      </trkpt>
      <trkpt lat="47.07198" lon="6.60571">
        <ele>1055.8</ele>
        <time>2019-08-21T20:00:57Z</time>
      </trkpt>
      <trkpt lat="47.07162" lon="6.60499">
        <ele>1054.8</ele>
        <time>2019-08-21T20:01:12Z</time>
      </trkpt>
      <trkpt lat="47.0715" lon="6.60458">
        <ele>1054</ele>
        <time>2019-08-21T20:01:19Z</time>
      </trkpt>
      <trkpt lat="47.07143" lon="6.60404">
        <ele>1061.4</ele>
        <time>2019-08-21T20:01:29Z</time>
      </trkpt>
      <trkpt lat="47.07132" lon="6.6036">
        <ele>1056.7</ele>
        <time>2019-08-21T20:01:42Z</time>
      </trkpt>
      <trkpt lat="47.07128" lon="6.6034">
        <ele>1070.3</ele>
        <time>2019-08-21T20:02:21Z</time>
      </trkpt>
      <trkpt lat="47.07122" lon="6.60294">
        <ele>1076.8</ele>
        <time>2019-08-21T20:02:26Z</time>
      </trkpt>
      <trkpt lat="47.07122" lon="6.60259">
        <ele>1081.1</ele>
        <time>2019-08-21T20:02:30Z</time>
      </trkpt>
      <trkpt lat="47.07129" lon="6.60218">
        <ele>1087.1</ele>
        <time>2019-08-21T20:02:37Z</time>
      </trkpt>
      <trkpt lat="47.07137" lon="6.6019">
        <ele>1074.5</ele>
        <time>2019-08-21T20:02:45Z</time>
      </trkpt>
      <trkpt lat="47.07132" lon="6.60171">
        <ele>1092</ele>
        <time>2019-08-21T20:02:56Z</time>
      </trkpt>
      <trkpt lat="47.0712" lon="6.60137">
        <ele>1090.9</ele>
        <time>2019-08-21T20:03:04Z</time>
      </trkpt>
      <trkpt lat="47.07106" lon="6.60097">
        <ele>1089</ele>
        <time>2019-08-21T20:03:09Z</time>
      </trkpt>
      <trkpt lat="47.07076" lon="6.60017">
        <ele>1081.9</ele>
        <time>2019-08-21T20:03:20Z</time>
      </trkpt>
      <trkpt lat="47.07029" lon="6.5991">
        <ele>1077</ele>
        <time>2019-08-21T20:03:26Z</time>
      </trkpt>
      <trkpt lat="47.07004" lon="6.59839">
        <ele>1073.3</ele>
        <time>2019-08-21T20:03:28Z</time>
      </trkpt>
      <trkpt lat="47.06973" lon="6.59738">
        <ele>1067.4</ele>
        <time>2019-08-21T20:03:32Z</time>
      </trkpt>
      <trkpt lat="47.06956" lon="6.597">
        <ele>1062.8</ele>
        <time>2019-08-21T20:03:39Z</time>
      </trkpt>
      <trkpt lat="47.06961" lon="6.59622">
        <ele>1047.6</ele>
        <time>2019-08-21T20:03:45Z</time>
      </trkpt>
      <trkpt lat="47.06966" lon="6.59601">
        <ele>1042.6</ele>
        <time>2019-08-21T20:03:47Z</time>
      </trkpt>
      <trkpt lat="47.06952" lon="6.59601">
        <ele>1038.7</ele>
        <time>2019-08-21T20:04:05Z</time>
      </trkpt>
      <trkpt lat="47.06904" lon="6.59615">
        <ele>1025.2</ele>
        <time>2019-08-21T20:04:11Z</time>
      </trkpt>
      <trkpt lat="47.06852" lon="6.59611">
        <ele>1024.5</ele>
        <time>2019-08-21T20:04:18Z</time>
      </trkpt>
      <trkpt lat="47.06798" lon="6.59568">
        <ele>1017.3</ele>
        <time>2019-08-21T20:04:27Z</time>
      </trkpt>
      <trkpt lat="47.0678" lon="6.59529">
        <ele>1014.7</ele>
        <time>2019-08-21T20:04:55Z</time>
      </trkpt>
      <trkpt lat="47.06766" lon="6.59473">
        <ele>1024.5</ele>
        <time>2019-08-21T20:05:19Z</time>
      </trkpt>
      <trkpt lat="47.06729" lon="6.59421">
        <ele>1012.9</ele>
        <time>2019-08-21T20:05:25Z</time>
      </trkpt>
      <trkpt lat="47.06711" lon="6.59428">
        <ele>1008.7</ele>
        <time>2019-08-21T20:05:35Z</time>
      </trkpt>
      <trkpt lat="47.067" lon="6.59441">
        <ele>1005.1</ele>
        <time>2019-08-21T20:06:21Z</time>
      </trkpt>
      <trkpt lat="47.06689" lon="6.59449">
        <ele>1003.1</ele>
        <time>2019-08-21T20:06:25Z</time>
      </trkpt>
      <trkpt lat="47.06673" lon="6.59453">
        <ele>1003</ele>
        <time>2019-08-21T20:06:27Z</time>
      </trkpt>
      <trkpt lat="47.06661" lon="6.59448">
        <ele>997.7</ele>
        <time>2019-08-21T20:06:36Z</time>
      </trkpt>
      <trkpt lat="47.06632" lon="6.59435">
        <ele>987</ele>
        <time>2019-08-21T20:06:40Z</time>
      </trkpt>
      <trkpt lat="47.06614" lon="6.59412">
        <ele>987.8</ele>
        <time>2019-08-21T20:06:48Z</time>
      </trkpt>
      <trkpt lat="47.06598" lon="6.59366">
        <ele>981.6</ele>
        <time>2019-08-21T20:06:57Z</time>
      </trkpt>
      <trkpt lat="47.06592" lon="6.59353">
        <ele>978.5</ele>
        <time>2019-08-21T20:07:03Z</time>
      </trkpt>
      <trkpt lat="47.06575" lon="6.59345">
        <ele>974.7</ele>
        <time>2019-08-21T20:07:09Z</time>
      </trkpt>
      <trkpt lat="47.06543" lon="6.59376">
        <ele>979.5</ele>
        <time>2019-08-21T20:07:14Z</time>
      </trkpt>
      <trkpt lat="47.06474" lon="6.59408">
        <ele>965.7</ele>
        <time>2019-08-21T20:07:18Z</time>
      </trkpt>
      <trkpt lat="47.06455" lon="6.59426">
        <ele>954.9</ele>
        <time>2019-08-21T20:07:20Z</time>
      </trkpt>
      <trkpt lat="47.06369" lon="6.59455">
        <ele>940.9</ele>
        <time>2019-08-21T20:07:24Z</time>
      </trkpt>
      <trkpt lat="47.063" lon="6.59493">
        <ele>929.4</ele>
        <time>2019-08-21T20:07:32Z</time>
      </trkpt>
      <trkpt lat="47.06354" lon="6.59589">
        <ele>940.5</ele>
        <time>2019-08-21T20:07:40Z</time>
      </trkpt>
      <trkpt lat="47.06401" lon="6.59654">
        <ele>943.1</ele>
        <time>2019-08-21T20:07:48Z</time>
      </trkpt>
      <trkpt lat="47.06413" lon="6.59668">
        <ele>943.3</ele>
        <time>2019-08-21T20:07:55Z</time>
      </trkpt>
      <trkpt lat="47.06434" lon="6.59691">
        <ele>943.5</ele>
        <time>2019-08-21T20:08:02Z</time>
      </trkpt>
      <trkpt lat="47.06487" lon="6.59761">
        <ele>942.5</ele>
        <time>2019-08-21T20:08:07Z</time>
      </trkpt>
      <trkpt lat="47.06493" lon="6.59782">
        <ele>942</ele>
        <time>2019-08-21T20:08:12Z</time>
      </trkpt>
      <trkpt lat="47.065" lon="6.59813">
        <ele>940.9</ele>
        <time>2019-08-21T20:08:33Z</time>
      </trkpt>
      <trkpt lat="47.06509" lon="6.59828">
        <ele>940.1</ele>
        <time>2019-08-21T20:08:48Z</time>
      </trkpt>
      <trkpt lat="47.065" lon="6.59848">
        <ele>938</ele>
        <time>2019-08-21T20:08:52Z</time>
      </trkpt>
      <trkpt lat="47.06458" lon="6.59874">
        <ele>929.7</ele>
        <time>2019-08-21T20:09:00Z</time>
      </trkpt>
      <trkpt lat="47.06428" lon="6.59886">
        <ele>925.6</ele>
        <time>2019-08-21T20:09:02Z</time>
      </trkpt>
      <trkpt lat="47.06417" lon="6.5989">
        <ele>924.1</ele>
        <time>2019-08-21T20:09:09Z</time>
      </trkpt>
      <trkpt lat="47.06396" lon="6.59914">
        <ele>922</ele>
        <time>2019-08-21T20:09:23Z</time>
      </trkpt>
      <trkpt lat="47.06391" lon="6.5994">
        <ele>918.3</ele>
        <time>2019-08-21T20:10:11Z</time>
      </trkpt>
      <trkpt lat="47.06369" lon="6.59956">
        <ele>913</ele>
        <time>2019-08-21T20:10:26Z</time>
      </trkpt>
      <trkpt lat="47.0636" lon="6.59977">
        <ele>909.5</ele>
        <time>2019-08-21T20:17:42Z</time>
      </trkpt>
      <trkpt lat="47.06342" lon="6.59983">
        <ele>907.3</ele>
        <time>2019-08-21T20:17:56Z</time>
      </trkpt>
      <trkpt lat="47.06332" lon="6.60003">
        <ele>904.3</ele>
        <time>2019-08-21T20:18:03Z</time>
      </trkpt>
      <trkpt lat="47.06312" lon="6.59977">
        <ele>899.2</ele>
        <time>2019-08-21T20:18:07Z</time>
      </trkpt>
      <trkpt lat="47.06301" lon="6.59941">
        <ele>895.1</ele>
        <time>2019-08-21T20:18:39Z</time>
      </trkpt>
      <trkpt lat="47.06288" lon="6.5995">
        <ele>904.1</ele>
        <time>2019-08-21T20:18:45Z</time>
      </trkpt>
      <trkpt lat="47.06266" lon="6.59962">
        <ele>901.1</ele>
        <time>2019-08-21T20:18:49Z</time>
      </trkpt>
      <trkpt lat="47.06214" lon="6.59981">
        <ele>888.9</ele>
        <time>2019-08-21T20:19:09Z</time>
      </trkpt>
      <trkpt lat="47.06141" lon="6.6">
        <ele>879</ele>
        <time>2019-08-21T20:19:22Z</time>
      </trkpt>
      <trkpt lat="47.06072" lon="6.59975">
        <ele>856.5</ele>
        <time>2019-08-21T20:19:49Z</time>
      </trkpt>
      <trkpt lat="47.06037" lon="6.59966">
        <ele>854.4</ele>
        <time>2019-08-21T20:20:51Z</time>
      </trkpt>
      <trkpt lat="47.05998" lon="6.5997">
        <ele>850.6</ele>
        <time>2019-08-21T20:21:02Z</time>
      </trkpt>
      <trkpt lat="47.05971" lon="6.59951">
        <ele>845.9</ele>
        <time>2019-08-21T20:21:05Z</time>
      </trkpt>
      <trkpt lat="47.0595" lon="6.5993">
        <ele>842.4</ele>
        <time>2019-08-21T20:21:17Z</time>
      </trkpt>
      <trkpt lat="47.05918" lon="6.59911">
        <ele>838.7</ele>
        <time>2019-08-21T20:21:29Z</time>
      </trkpt>
      <trkpt lat="47.05886" lon="6.59881">
        <ele>835.5</ele>
        <time>2019-08-21T20:21:49Z</time>
      </trkpt>
      <trkpt lat="47.05852" lon="6.59874">
        <ele>829.8</ele>
        <time>2019-08-21T20:22:23Z</time>
      </trkpt>
      <trkpt lat="47.05826" lon="6.59903">
        <ele>820.2</ele>
        <time>2019-08-21T20:22:35Z</time>
      </trkpt>
      <trkpt lat="47.05795" lon="6.59958">
        <ele>802.1</ele>
        <time>2019-08-21T20:22:42Z</time>
      </trkpt>
      <trkpt lat="47.05779" lon="6.59963">
        <ele>806.3</ele>
        <time>2019-08-21T20:22:47Z</time>
      </trkpt>
      <trkpt lat="47.05747" lon="6.5996">
        <ele>802.9</ele>
        <time>2019-08-21T20:22:49Z</time>
      </trkpt>
      <trkpt lat="47.05708" lon="6.59948">
        <ele>798.2</ele>
        <time>2019-08-21T20:23:09Z</time>
      </trkpt>
      <trkpt lat="47.05666" lon="6.59951">
        <ele>787</ele>
        <time>2019-08-21T20:23:20Z</time>
      </trkpt>
      <trkpt lat="47.05623" lon="6.5993">
        <ele>787.6</ele>
        <time>2019-08-21T20:23:54Z</time>
      </trkpt>
      <trkpt lat="47.05601" lon="6.59926">
        <ele>786.1</ele>
        <time>2019-08-21T20:24:10Z</time>
      </trkpt>
      <trkpt lat="47.05556" lon="6.59947">
        <ele>777.2</ele>
        <time>2019-08-21T20:24:30Z</time>
      </trkpt>
      <trkpt lat="47.05451" lon="6.60015">
        <ele>767.2</ele>
        <time>2019-08-21T20:24:42Z</time>
      </trkpt>
      <trkpt lat="47.05419" lon="6.60035">
        <ele>761.3</ele>
        <time>2019-08-21T20:24:48Z</time>
      </trkpt>
      <trkpt lat="47.05396" lon="6.60032">
        <ele>756.7</ele>
        <time>2019-08-21T20:25:06Z</time>
      </trkpt>
      <trkpt lat="47.05389" lon="6.60035">
        <ele>756.4</ele>
        <time>2019-08-21T20:25:31Z</time>
      </trkpt>
      <trkpt lat="47.05389" lon="6.60056">
        <ele>756.5</ele>
        <time>2019-08-21T20:25:47Z</time>
      </trkpt>
      <trkpt lat="47.05401" lon="6.60106">
        <ele>756.7</ele>
        <time>2019-08-21T20:26:01Z</time>
      </trkpt>
      <trkpt lat="47.05414" lon="6.60163">
        <ele>755.1</ele>
        <time>2019-08-21T20:26:50Z</time>
      </trkpt>
      <trkpt lat="47.05438" lon="6.60265">
        <ele>757.5</ele>
        <time>2019-08-21T20:27:45Z</time>
      </trkpt>
      <trkpt lat="47.05462" lon="6.60358">
        <ele>758.2</ele>
        <time>2019-08-21T20:28:05Z</time>
      </trkpt>
      <trkpt lat="47.05474" lon="6.60399">
        <ele>758.4</ele>
        <time>2019-08-21T20:28:51Z</time>
      </trkpt>
      <trkpt lat="47.05485" lon="6.60457">
        <ele>759</ele>
        <time>2019-08-21T20:29:54Z</time>
      </trkpt>
      <trkpt lat="47.05478" lon="6.60468">
        <ele>759</ele>
        <time>2019-08-21T20:30:41Z</time>
      </trkpt>
      <trkpt lat="47.0546" lon="6.60483">
        <ele>759</ele>
        <time>2019-08-21T20:30:42Z</time>
      </trkpt>
      <trkpt lat="47.05404" lon="6.60473">
        <ele>755.1</ele>
        <time>2019-08-21T20:30:45Z</time>
      </trkpt>
      <trkpt lat="47.0539" lon="6.60502">
        <ele>755</ele>
        <time>2019-08-21T20:30:53Z</time>
      </trkpt>
      <trkpt lat="47.05388" lon="6.6053">
        <ele>755.2</ele>
        <time>2019-08-21T20:31:10Z</time>
      </trkpt>
      <trkpt lat="47.05389" lon="6.6062">
        <ele>754.6</ele>
        <time>2019-08-21T20:31:27Z</time>
      </trkpt>
      <trkpt lat="47.05388" lon="6.60652">
        <ele>754.6</ele>
        <time>2019-08-21T20:31:46Z</time>
      </trkpt>
      <trkpt lat="47.05387" lon="6.60723">
        <ele>755.2</ele>
        <time>2019-08-21T20:32:07Z</time>
      </trkpt>
      <trkpt lat="47.05382" lon="6.60809">
        <ele>755.9</ele>
        <time>2019-08-21T20:32:40Z</time>
      </trkpt>
      <trkpt lat="47.0538" lon="6.60884">
        <ele>755.5</ele>
        <time>2019-08-21T20:32:55Z</time>
      </trkpt>
      <trkpt lat="47.05378" lon="6.60917">
        <ele>755.5</ele>
        <time>2019-08-21T20:33:00Z</time>
      </trkpt>
      <trkpt lat="47.05373" lon="6.60953">
        <ele>756</ele>
        <time>2019-08-21T20:33:13Z</time>
      </trkpt>
      <trkpt lat="47.05384" lon="6.60973">
        <ele>755.8</ele>
        <time>2019-08-21T20:33:45Z</time>
      </trkpt>
      <trkpt lat="47.05417" lon="6.60995">
        <ele>756</ele>
        <time>2019-08-21T20:33:51Z</time>
      </trkpt>
      <trkpt lat="47.05447" lon="6.61039">
        <ele>758.5</ele>
        <time>2019-08-21T20:34:09Z</time>
      </trkpt>
      <trkpt lat="47.05514" lon="6.6111">
        <ele>764.5</ele>
        <time>2019-08-21T20:37:36Z</time>
      </trkpt>
      <trkpt lat="47.05545" lon="6.61143">
        <ele>765.3</ele>
        <time>2019-08-21T20:39:44Z</time>
      </trkpt>
      <trkpt lat="47.05591" lon="6.61235">
        <ele>767.8</ele>
        <time>2019-08-21T20:40:01Z</time>
      </trkpt>
      <trkpt lat="47.05632" lon="6.61352">
        <ele>765.1</ele>
        <time>2019-08-21T20:40:14Z</time>
      </trkpt>
      <trkpt lat="47.05651" lon="6.61433">
        <ele>761.4</ele>
        <time>2019-08-21T20:40:44Z</time>
      </trkpt>
      <trkpt lat="47.05651" lon="6.61469">
        <ele>760.6</ele>
        <time>2019-08-21T20:42:09Z</time>
      </trkpt>
      <trkpt lat="47.0564" lon="6.61527">
        <ele>757.7</ele>
        <time>2019-08-21T20:42:58Z</time>
      </trkpt>
      <trkpt lat="47.05649" lon="6.6159">
        <ele>754.5</ele>
        <time>2019-08-21T20:45:21Z</time>
      </trkpt>
      <trkpt lat="47.05683" lon="6.61699">
        <ele>754.2</ele>
        <time>2019-08-21T20:45:40Z</time>
      </trkpt>
      <trkpt lat="47.05692" lon="6.61749">
        <ele>755.8</ele>
        <time>2019-08-21T20:46:08Z</time>
      </trkpt>
      <trkpt lat="47.05693" lon="6.61775">
        <ele>759</ele>
        <time>2019-08-21T20:46:19Z</time>
      </trkpt>
      <trkpt lat="47.05667" lon="6.61821">
        <ele>759.8</ele>
        <time>2019-08-21T20:46:56Z</time>
      </trkpt>
      <trkpt lat="47.05633" lon="6.61849">
        <ele>759</ele>
        <time>2019-08-21T20:47:29Z</time>
      </trkpt>
      <trkpt lat="47.05618" lon="6.61893">
        <ele>765</ele>
        <time>2019-08-21T20:47:49Z</time>
      </trkpt>
      <trkpt lat="47.05602" lon="6.61936">
        <ele>762.7</ele>
        <time>2019-08-21T20:47:53Z</time>
      </trkpt>
      <trkpt lat="47.05573" lon="6.62023">
        <ele>770</ele>
        <time>2019-08-21T20:47:54Z</time>
      </trkpt>
      <trkpt lat="47.05561" lon="6.62061">
        <ele>764</ele>
        <time>2019-08-21T20:51:37Z</time>
      </trkpt>
      <trkpt lat="47.0557" lon="6.62118">
        <ele>767.3</ele>
        <time>2019-08-21T20:52:15Z</time>
      </trkpt>
      <trkpt lat="47.05589" lon="6.62157">
        <ele>773</ele>
        <time>2019-08-21T20:52:29Z</time>
      </trkpt>
      <trkpt lat="47.0562" lon="6.62177">
        <ele>775.4</ele>
        <time>2019-08-21T20:53:24Z</time>
      </trkpt>
      <trkpt lat="47.05692" lon="6.62223">
        <ele>777.3</ele>
        <time>2019-08-21T20:53:26Z</time>
      </trkpt>
      <trkpt lat="47.05752" lon="6.62318">
        <ele>777.2</ele>
        <time>2019-08-21T20:54:21Z</time>
      </trkpt>
      <trkpt lat="47.05786" lon="6.62373">
        <ele>778.1</ele>
        <time>2019-08-21T20:57:50Z</time>
      </trkpt>
      <trkpt lat="47.05805" lon="6.62424">
        <ele>779.4</ele>
        <time>2019-08-21T20:58:01Z</time>
      </trkpt>
      <trkpt lat="47.05797" lon="6.62435">
        <ele>780.1</ele>
        <time>2019-08-21T20:58:15Z</time>
      </trkpt>
      <trkpt lat="47.05766" lon="6.62475">
        <ele>782.1</ele>
        <time>2019-08-21T20:58:22Z</time>
      </trkpt>
      <trkpt lat="47.05739" lon="6.62525">
        <ele>783.8</ele>
        <time>2019-08-21T20:58:35Z</time>
      </trkpt>
      <trkpt lat="47.05702" lon="6.62613">
        <ele>786.3</ele>
        <time>2019-08-21T20:58:51Z</time>
      </trkpt>
      <trkpt lat="47.05681" lon="6.62667">
        <ele>790.1</ele>
        <time>2019-08-21T20:58:57Z</time>
      </trkpt>
      <trkpt lat="47.05649" lon="6.62677">
        <ele>791.3</ele>
        <time>2019-08-21T20:59:02Z</time>
      </trkpt>
      <trkpt lat="47.05588" lon="6.62644">
        <ele>788.7</ele>
        <time>2019-08-21T20:59:12Z</time>
      </trkpt>
      <trkpt lat="47.05524" lon="6.6263">
        <ele>789.1</ele>
        <time>2019-08-21T20:59:20Z</time>
      </trkpt>
      <trkpt lat="47.05489" lon="6.62615">
        <ele>789.8</ele>
        <time>2019-08-21T20:59:31Z</time>
      </trkpt>
      <trkpt lat="47.05464" lon="6.62619">
        <ele>790.9</ele>
        <time>2019-08-21T20:59:34Z</time>
      </trkpt>
      <trkpt lat="47.05454" lon="6.62625">
        <ele>791.7</ele>
        <time>2019-08-21T20:59:42Z</time>
      </trkpt>
      <trkpt lat="47.05418" lon="6.62674">
        <ele>788.1</ele>
        <time>2019-08-21T21:00:10Z</time>
      </trkpt>
      <trkpt lat="47.05412" lon="6.62732">
        <ele>797.3</ele>
        <time>2019-08-21T21:00:15Z</time>
      </trkpt>
      <trkpt lat="47.05395" lon="6.62786">
        <ele>800</ele>
        <time>2019-08-21T21:00:35Z</time>
      </trkpt>
      <trkpt lat="47.05384" lon="6.62816">
        <ele>804.6</ele>
        <time>2019-08-21T21:00:47Z</time>
      </trkpt>
      <trkpt lat="47.05363" lon="6.62818">
        <ele>806.5</ele>
        <time>2019-08-21T21:00:52Z</time>
      </trkpt>
      <trkpt lat="47.05334" lon="6.62811">
        <ele>808.4</ele>
        <time>2019-08-21T21:00:56Z</time>
      </trkpt>
      <trkpt lat="47.0528" lon="6.62785">
        <ele>810.4</ele>
        <time>2019-08-21T21:01:20Z</time>
      </trkpt>
      <trkpt lat="47.05203" lon="6.62741">
        <ele>799.9</ele>
        <time>2019-08-21T21:01:43Z</time>
      </trkpt>
      <trkpt lat="47.05113" lon="6.62734">
        <ele>806.7</ele>
        <time>2019-08-21T21:02:00Z</time>
      </trkpt>
      <trkpt lat="47.05079" lon="6.62731">
        <ele>807.6</ele>
        <time>2019-08-21T21:02:08Z</time>
      </trkpt>
      <trkpt lat="47.05056" lon="6.62742">
        <ele>808.4</ele>
        <time>2019-08-21T21:02:27Z</time>
      </trkpt>
      <trkpt lat="47.05002" lon="6.62773">
        <ele>825</ele>
        <time>2019-08-21T21:02:34Z</time>
      </trkpt>
      <trkpt lat="47.04932" lon="6.62808">
        <ele>814.6</ele>
        <time>2019-08-21T21:02:52Z</time>
      </trkpt>
      <trkpt lat="47.04878" lon="6.62848">
        <ele>823.9</ele>
        <time>2019-08-21T21:04:31Z</time>
      </trkpt>
      <trkpt lat="47.04832" lon="6.62903">
        <ele>813.1</ele>
        <time>2019-08-21T21:04:32Z</time>
      </trkpt>
      <trkpt lat="47.04744" lon="6.63009">
        <ele>812.9</ele>
        <time>2019-08-21T21:04:34Z</time>
      </trkpt>
      <trkpt lat="47.04707" lon="6.63112">
        <ele>817.7</ele>
        <time>2019-08-21T21:04:47Z</time>
      </trkpt>
      <trkpt lat="47.04683" lon="6.63222">
        <ele>822.4</ele>
        <time>2019-08-21T21:05:59Z</time>
      </trkpt>
      <trkpt lat="47.047" lon="6.63284">
        <ele>827.4</ele>
        <time>2019-08-21T21:10:39Z</time>
      </trkpt>
      <trkpt lat="47.04748" lon="6.63361">
        <ele>828.7</ele>
        <time>2019-08-21T21:11:38Z</time>
      </trkpt>
      <trkpt lat="47.0478" lon="6.6341">
        <ele>851.3</ele>
        <time>2019-08-21T21:11:51Z</time>
      </trkpt>
      <trkpt lat="47.04797" lon="6.63428">
        <ele>845.3</ele>
        <time>2019-08-21T21:12:11Z</time>
      </trkpt>
      <trkpt lat="47.04843" lon="6.63491">
        <ele>849.6</ele>
        <time>2019-08-21T21:12:23Z</time>
      </trkpt>
      <trkpt lat="47.04848" lon="6.63499">
        <ele>850.3</ele>
        <time>2019-08-21T21:12:28Z</time>
      </trkpt>
      <trkpt lat="47.0487" lon="6.63524">
        <ele>853.4</ele>
        <time>2019-08-21T21:12:32Z</time>
      </trkpt>
      <trkpt lat="47.04919" lon="6.6358">
        <ele>862.3</ele>
        <time>2019-08-21T21:12:36Z</time>
      </trkpt>
      <trkpt lat="47.04928" lon="6.63594">
        <ele>863.9</ele>
        <time>2019-08-21T21:12:40Z</time>
      </trkpt>
      <trkpt lat="47.04984" lon="6.63676">
        <ele>873.6</ele>
        <time>2019-08-21T21:12:48Z</time>
      </trkpt>
      <trkpt lat="47.04993" lon="6.63695">
        <ele>874.8</ele>
        <time>2019-08-21T21:13:01Z</time>
      </trkpt>
      <trkpt lat="47.05013" lon="6.63745">
        <ele>876.5</ele>
        <time>2019-08-21T21:13:11Z</time>
      </trkpt>
      <trkpt lat="47.05033" lon="6.63822">
        <ele>878.8</ele>
        <time>2019-08-21T21:13:17Z</time>
      </trkpt>
      <trkpt lat="47.05054" lon="6.63906">
        <ele>882.3</ele>
        <time>2019-08-21T21:13:27Z</time>
      </trkpt>
      <trkpt lat="47.05095" lon="6.63984">
        <ele>892.3</ele>
        <time>2019-08-21T21:14:05Z</time>
      </trkpt>
      <trkpt lat="47.05139" lon="6.64052">
        <ele>890.9</ele>
        <time>2019-08-21T21:14:13Z</time>
      </trkpt>
      <trkpt lat="47.05193" lon="6.64155">
        <ele>895.5</ele>
        <time>2019-08-21T21:14:23Z</time>
      </trkpt>
      <trkpt lat="47.05214" lon="6.64196">
        <ele>888.8</ele>
        <time>2019-08-21T21:14:32Z</time>
      </trkpt>
      <trkpt lat="47.0526" lon="6.64279">
        <ele>883.6</ele>
        <time>2019-08-21T21:14:52Z</time>
      </trkpt>
      <trkpt lat="47.05307" lon="6.6437">
        <ele>874</ele>
        <time>2019-08-21T21:15:04Z</time>
      </trkpt>
      <trkpt lat="47.0532" lon="6.64398">
        <ele>873</ele>
        <time>2019-08-21T21:15:06Z</time>
      </trkpt>
      <trkpt lat="47.0534" lon="6.64422">
        <ele>876.9</ele>
        <time>2019-08-21T21:15:13Z</time>
      </trkpt>
      <trkpt lat="47.05362" lon="6.64433">
        <ele>879.6</ele>
        <time>2019-08-21T21:15:17Z</time>
      </trkpt>
      <trkpt lat="47.05376" lon="6.64443">
        <ele>880.4</ele>
        <time>2019-08-21T21:15:25Z</time>
      </trkpt>
      <trkpt lat="47.05411" lon="6.64486">
        <ele>886.1</ele>
        <time>2019-08-21T21:15:27Z</time>
      </trkpt>
      <trkpt lat="47.0546" lon="6.64553">
        <ele>897.4</ele>
        <time>2019-08-21T21:15:36Z</time>
      </trkpt>
      <trkpt lat="47.0551" lon="6.64654">
        <ele>907.1</ele>
        <time>2019-08-21T21:15:40Z</time>
      </trkpt>
      <trkpt lat="47.0554" lon="6.64708">
        <ele>902.8</ele>
        <time>2019-08-21T21:15:48Z</time>
      </trkpt>
      <trkpt lat="47.05572" lon="6.64748">
        <ele>905.9</ele>
        <time>2019-08-21T21:16:01Z</time>
      </trkpt>
      <trkpt lat="47.05605" lon="6.64777">
        <ele>907.9</ele>
        <time>2019-08-21T21:16:06Z</time>
      </trkpt>
      <trkpt lat="47.05654" lon="6.6477">
        <ele>914.5</ele>
        <time>2019-08-21T21:16:11Z</time>
      </trkpt>
      <trkpt lat="47.05681" lon="6.64797">
        <ele>921.4</ele>
        <time>2019-08-21T21:16:15Z</time>
      </trkpt>
      <trkpt lat="47.05723" lon="6.64802">
        <ele>924.8</ele>
        <time>2019-08-21T21:16:19Z</time>
      </trkpt>
      <trkpt lat="47.05739" lon="6.6478">
        <ele>926.9</ele>
        <time>2019-08-21T21:16:24Z</time>
      </trkpt>
      <trkpt lat="47.05743" lon="6.64749">
        <ele>933</ele>
        <time>2019-08-21T21:16:29Z</time>
      </trkpt>
      <trkpt lat="47.05738" lon="6.64715">
        <ele>933.2</ele>
        <time>2019-08-21T21:16:33Z</time>
      </trkpt>
      <trkpt lat="47.05716" lon="6.64686">
        <ele>933.7</ele>
        <time>2019-08-21T21:16:40Z</time>
      </trkpt>
      <trkpt lat="47.05685" lon="6.64673">
        <ele>932.4</ele>
        <time>2019-08-21T21:17:01Z</time>
      </trkpt>
      <trkpt lat="47.0566" lon="6.64669">
        <ele>929.5</ele>
        <time>2019-08-21T21:17:08Z</time>
      </trkpt>
      <trkpt lat="47.05641" lon="6.6466">
        <ele>931.4</ele>
        <time>2019-08-21T21:17:24Z</time>
      </trkpt>
      <trkpt lat="47.05628" lon="6.64631">
        <ele>931.8</ele>
        <time>2019-08-21T21:17:59Z</time>
      </trkpt>
      <trkpt lat="47.05612" lon="6.64553">
        <ele>938.3</ele>
        <time>2019-08-21T21:18:21Z</time>
      </trkpt>
      <trkpt lat="47.05616" lon="6.6445">
        <ele>940</ele>
        <time>2019-08-21T21:18:41Z</time>
      </trkpt>
      <trkpt lat="47.0561" lon="6.64387">
        <ele>936.4</ele>
        <time>2019-08-21T21:18:52Z</time>
      </trkpt>
      <trkpt lat="47.05611" lon="6.64346">
        <ele>935.1</ele>
        <time>2019-08-21T21:18:54Z</time>
      </trkpt>
      <trkpt lat="47.05635" lon="6.64343">
        <ele>934.2</ele>
        <time>2019-08-21T21:19:00Z</time>
      </trkpt>
      <trkpt lat="47.05674" lon="6.64359">
        <ele>937.6</ele>
        <time>2019-08-21T21:19:07Z</time>
      </trkpt>
      <trkpt lat="47.05704" lon="6.64372">
        <ele>940.2</ele>
        <time>2019-08-21T21:19:09Z</time>
      </trkpt>
      <trkpt lat="47.05734" lon="6.64369">
        <ele>938.2</ele>
        <time>2019-08-21T21:19:28Z</time>
      </trkpt>
      <trkpt lat="47.05765" lon="6.64356">
        <ele>945.1</ele>
        <time>2019-08-21T21:19:48Z</time>
      </trkpt>
      <trkpt lat="47.05771" lon="6.64353">
        <ele>945.5</ele>
        <time>2019-08-21T21:20:10Z</time>
      </trkpt>
      <trkpt lat="47.05797" lon="6.64341">
        <ele>947.2</ele>
        <time>2019-08-21T21:20:16Z</time>
      </trkpt>
      <trkpt lat="47.05834" lon="6.64321">
        <ele>942</ele>
        <time>2019-08-21T21:20:18Z</time>
      </trkpt>
      <trkpt lat="47.05855" lon="6.64297">
        <ele>950.3</ele>
        <time>2019-08-21T21:20:22Z</time>
      </trkpt>
      <trkpt lat="47.05877" lon="6.64283">
        <ele>952.2</ele>
        <time>2019-08-21T21:20:27Z</time>
      </trkpt>
      <trkpt lat="47.05897" lon="6.64277">
        <ele>954.4</ele>
        <time>2019-08-21T21:20:46Z</time>
      </trkpt>
      <trkpt lat="47.05898" lon="6.64276">
        <ele>954.6</ele>
        <time>2019-08-21T21:20:49Z</time>
      </trkpt>
      <trkpt lat="47.05959" lon="6.64234">
        <ele>957.7</ele>
      </trkpt>
      <trkpt lat="47.05974" lon="6.64212">
        <ele>958</ele>
      </trkpt>
      <trkpt lat="47.05991" lon="6.64234">
        <ele>960.9</ele>
      </trkpt>
      <trkpt lat="47.06" lon="6.64274">
        <ele>963.1</ele>
      </trkpt>
      <trkpt lat="47.06014" lon="6.64328">
        <ele>964.9</ele>
      </trkpt>
      <trkpt lat="47.06042" lon="6.6441">
        <ele>964.8</ele>
      </trkpt>
      <trkpt lat="47.06071" lon="6.64496">
        <ele>965.2</ele>
      </trkpt>
      <trkpt lat="47.06108" lon="6.64553">
        <ele>966.1</ele>
      </trkpt>
      <trkpt lat="47.0614" lon="6.64598">
        <ele>964.8</ele>
      </trkpt>
      <trkpt lat="47.06164" lon="6.64628">
        <ele>965.2</ele>
      </trkpt>
      <trkpt lat="47.06218" lon="6.64643">
        <ele>968.1</ele>
      </trkpt>
      <trkpt lat="47.06262" lon="6.64573">
        <ele>967.2</ele>
      </trkpt>
      <trkpt lat="47.06264" lon="6.64576">
        <ele>967.2</ele>
      </trkpt>
      <trkpt lat="47.06349" lon="6.64678">
        <ele>974</ele>
      </trkpt>
      <trkpt lat="47.06372" lon="6.64702">
        <ele>976.9</ele>
      </trkpt>
      <trkpt lat="47.06381" lon="6.64711">
        <ele>977.8</ele>
      </trkpt>
      <trkpt lat="47.06413" lon="6.6473">
        <ele>980.6</ele>
      </trkpt>
      <trkpt lat="47.06451" lon="6.64755">
        <ele>986</ele>
      </trkpt>
      <trkpt lat="47.06459" lon="6.64761">
        <ele>987.3</ele>
      </trkpt>
      <trkpt lat="47.06461" lon="6.64762">
        <ele>987.6</ele>
      </trkpt>
      <trkpt lat="47.06516" lon="6.64793">
        <ele>992.8</ele>
      </trkpt>
      <trkpt lat="47.06545" lon="6.64825">
        <ele>995.2</ele>
      </trkpt>
      <trkpt lat="47.06577" lon="6.64899">
        <ele>997.2</ele>
      </trkpt>
      <trkpt lat="47.06595" lon="6.64927">
        <ele>998.2</ele>
      </trkpt>
      <trkpt lat="47.06619" lon="6.64941">
        <ele>997.6</ele>
      </trkpt>
      <trkpt lat="47.06666" lon="6.64974">
        <ele>1001</ele>
      </trkpt>
      <trkpt lat="47.06708" lon="6.65029">
        <ele>1001.2</ele>
      </trkpt>
      <trkpt lat="47.06751" lon="6.65088">
        <ele>1001.7</ele>
      </trkpt>
      <trkpt lat="47.06817" lon="6.65169">
        <ele>1011.6</ele>
      </trkpt>
      <trkpt lat="47.06861" lon="6.65216">
        <ele>1009.7</ele>
      </trkpt>
      <trkpt lat="47.06894" lon="6.65249">
        <ele>1008.6</ele>
      </trkpt>
      <trkpt lat="47.06934" lon="6.65296">
        <ele>1007.2</ele>
      </trkpt>
      <trkpt lat="47.06992" lon="6.65374">
        <ele>1005.7</ele>
      </trkpt>
      <trkpt lat="47.07036" lon="6.65448">
        <ele>1011.9</ele>
      </trkpt>
      <trkpt lat="47.07061" lon="6.65471">
        <ele>1008.2</ele>
      </trkpt>
      <trkpt lat="47.07093" lon="6.65495">
        <ele>1012</ele>
      </trkpt>
      <trkpt lat="47.0713" lon="6.65522">
        <ele>1013.8</ele>
      </trkpt>
      <trkpt lat="47.07151" lon="6.65531">
        <ele>1014.8</ele>
      </trkpt>
      <trkpt lat="47.07171" lon="6.65521">
        <ele>1024.5</ele>
      </trkpt>
      <trkpt lat="47.07176" lon="6.65518">
        <ele>1025</ele>
      </trkpt>
      <trkpt lat="47.07199" lon="6.65449">
        <ele>1021.5</ele>
      </trkpt>
      <trkpt lat="47.07242" lon="6.65395">
        <ele>1030.1</ele>
      </trkpt>
      <trkpt lat="47.07277" lon="6.65344">
        <ele>1031.2</ele>
      </trkpt>
      <trkpt lat="47.0731" lon="6.65291">
        <ele>1034.3</ele>
      </trkpt>
      <trkpt lat="47.07322" lon="6.65275">
        <ele>1035.3</ele>
      </trkpt>
      <trkpt lat="47.07341" lon="6.65253">
        <ele>1033.6</ele>
      </trkpt>
      <trkpt lat="47.0737" lon="6.65245">
        <ele>1036.6</ele>
      </trkpt>
      <trkpt lat="47.07397" lon="6.65255">
        <ele>1040.1</ele>
      </trkpt>
      <trkpt lat="47.07428" lon="6.65335">
        <ele>1046.4</ele>
      </trkpt>
      <trkpt lat="47.07459" lon="6.65447">
        <ele>1046.7</ele>
      </trkpt>
      <trkpt lat="47.0748" lon="6.65516">
        <ele>1046.7</ele>
      </trkpt>
      <trkpt lat="47.07493" lon="6.65552">
        <ele>1046.1</ele>
      </trkpt>
      <trkpt lat="47.07545" lon="6.65657">
        <ele>1052.8</ele>
      </trkpt>
      <trkpt lat="47.0755" lon="6.65667">
        <ele>1053</ele>
      </trkpt>
      <trkpt lat="47.07524" lon="6.65699">
        <ele>1048</ele>
      </trkpt>
      <trkpt lat="47.07511" lon="6.65698">
        <ele>1046.4</ele>
      </trkpt>
      <trkpt lat="47.07493" lon="6.65711">
        <ele>1043.8</ele>
      </trkpt>
      <trkpt lat="47.07469" lon="6.65776">
        <ele>1040</ele>
      </trkpt>
      <trkpt lat="47.07474" lon="6.65848">
        <ele>1037.5</ele>
      </trkpt>
      <trkpt lat="47.07483" lon="6.65887">
        <ele>1037</ele>
      </trkpt>
      <trkpt lat="47.07474" lon="6.65926">
        <ele>1036.5</ele>
      </trkpt>
      <trkpt lat="47.07465" lon="6.65979">
        <ele>1028.7</ele>
      </trkpt>
      <trkpt lat="47.07504" lon="6.66207">
        <ele>1021.2</ele>
      </trkpt>
      <trkpt lat="47.07507" lon="6.6629">
        <ele>1018</ele>
      </trkpt>
      <trkpt lat="47.0751" lon="6.66497">
        <ele>1011.5</ele>
      </trkpt>
      <trkpt lat="47.07541" lon="6.66532">
        <ele>1008.8</ele>
      </trkpt>
      <trkpt lat="47.07563" lon="6.66559">
        <ele>1014.2</ele>
      </trkpt>
      <trkpt lat="47.07585" lon="6.66572">
        <ele>1018.6</ele>
      </trkpt>
      <trkpt lat="47.07598" lon="6.66575">
        <ele>1022.1</ele>
      </trkpt>
      <trkpt lat="47.07615" lon="6.66575">
        <ele>1026.2</ele>
      </trkpt>
      <trkpt lat="47.07633" lon="6.66583">
        <ele>1030</ele>
      </trkpt>
      <trkpt lat="47.0768" lon="6.66595">
        <ele>1031.5</ele>
      </trkpt>
      <trkpt lat="47.07721" lon="6.66616">
        <ele>1033.5</ele>
      </trkpt>
      <trkpt lat="47.07738" lon="6.66625">
        <ele>1034.9</ele>
      </trkpt>
      <trkpt lat="47.07779" lon="6.6666">
        <ele>1038.3</ele>
      </trkpt>
      <trkpt lat="47.07803" lon="6.66668">
        <ele>1040.1</ele>
      </trkpt>
      <trkpt lat="47.07804" lon="6.66645">
        <ele>1041.2</ele>
      </trkpt>
      <trkpt lat="47.0781" lon="6.66624">
        <ele>1042.9</ele>
      </trkpt>
      <trkpt lat="47.07822" lon="6.66589">
        <ele>1046.6</ele>
      </trkpt>
      <trkpt lat="47.07829" lon="6.66579">
        <ele>1047.9</ele>
      </trkpt>
      <trkpt lat="47.07853" lon="6.66558">
        <ele>1050.1</ele>
      </trkpt>
      <trkpt lat="47.07874" lon="6.66531">
        <ele>1051.2</ele>
      </trkpt>
      <trkpt lat="47.07895" lon="6.66505">
        <ele>1052.1</ele>
      </trkpt>
      <trkpt lat="47.07909" lon="6.66485">
        <ele>1052.5</ele>
      </trkpt>
      <trkpt lat="47.07952" lon="6.66435">
        <ele>1051.4</ele>
      </trkpt>
      <trkpt lat="47.07976" lon="6.66431">
        <ele>1049.7</ele>
      </trkpt>
      <trkpt lat="47.08007" lon="6.66394">
        <ele>1047.3</ele>
      </trkpt>
      <trkpt lat="47.08073" lon="6.66283">
        <ele>1046.3</ele>
      </trkpt>
      <trkpt lat="47.0808" lon="6.66271">
        <ele>1046.3</ele>
      </trkpt>
      <trkpt lat="47.08082" lon="6.66267">
        <ele>1046.3</ele>
      </trkpt>
      <trkpt lat="47.08086" lon="6.6626">
        <ele>1046.4</ele>
      </trkpt>
      <trkpt lat="47.08105" lon="6.66207">
        <ele>1046.8</ele>
      </trkpt>
      <trkpt lat="47.08128" lon="6.66146">
        <ele>1047.5</ele>
      </trkpt>
      <trkpt lat="47.08124" lon="6.66126">
        <ele>1047.5</ele>
      </trkpt>
      <trkpt lat="47.08117" lon="6.6611">
        <ele>1047.4</ele>
      </trkpt>
      <trkpt lat="47.0809" lon="6.66092">
        <ele>1047.2</ele>
      </trkpt>
      <trkpt lat="47.08036" lon="6.66048">
        <ele>1046.9</ele>
      </trkpt>
      <trkpt lat="47.08001" lon="6.66015">
        <ele>1046.9</ele>
      </trkpt>
      <trkpt lat="47.0796" lon="6.65981">
        <ele>1050.7</ele>
      </trkpt>
      <trkpt lat="47.0791" lon="6.65959">
        <ele>1053.7</ele>
      </trkpt>
      <trkpt lat="47.07874" lon="6.6596">
        <ele>1054</ele>
      </trkpt>
      <trkpt lat="47.07839" lon="6.65956">
        <ele>1054.3</ele>
      </trkpt>
      <trkpt lat="47.07803" lon="6.65927">
        <ele>1053.1</ele>
      </trkpt>
      <trkpt lat="47.07769" lon="6.65868">
        <ele>1055.1</ele>
      </trkpt>
      <trkpt lat="47.07746" lon="6.65829">
        <ele>1054.5</ele>
      </trkpt>
      <trkpt lat="47.07732" lon="6.65792">
        <ele>1053.5</ele>
      </trkpt>
      <trkpt lat="47.07702" lon="6.65736">
        <ele>1053.5</ele>
      </trkpt>
      <trkpt lat="47.07668" lon="6.65695">
        <ele>1053.5</ele>
      </trkpt>
      <trkpt lat="47.07579" lon="6.65679">
        <ele>1054.5</ele>
      </trkpt>
      <trkpt lat="47.07562" lon="6.65669">
        <ele>1053.8</ele>
      </trkpt>
      <trkpt lat="47.07542" lon="6.65642">
        <ele>1052.7</ele>
      </trkpt>
      <trkpt lat="47.07529" lon="6.65604">
        <ele>1052</ele>
      </trkpt>
      <trkpt lat="47.0754" lon="6.65594">
        <ele>1052.7</ele>
      </trkpt>
      <trkpt lat="47.07557" lon="6.65579">
        <ele>1054.6</ele>
      </trkpt>
      <trkpt lat="47.07577" lon="6.65561">
        <ele>1055.4</ele>
      </trkpt>
      <trkpt lat="47.07597" lon="6.6554">
        <ele>1057.3</ele>
      </trkpt>
      <trkpt lat="47.07643" lon="6.65501">
        <ele>1057.5</ele>
      </trkpt>
      <trkpt lat="47.07663" lon="6.65487">
        <ele>1057.7</ele>
      </trkpt>
      <trkpt lat="47.07698" lon="6.65476">
        <ele>1057.3</ele>
      </trkpt>
      <trkpt lat="47.07722" lon="6.65478">
        <ele>1057.5</ele>
      </trkpt>
      <trkpt lat="47.07739" lon="6.65473">
        <ele>1057.5</ele>
      </trkpt>
      <trkpt lat="47.07746" lon="6.6547">
        <ele>1057.3</ele>
      </trkpt>
      <trkpt lat="47.07755" lon="6.65459">
        <ele>1055.1</ele>
      </trkpt>
      <trkpt lat="47.07762" lon="6.65449">
        <ele>1054.2</ele>
      </trkpt>
      <trkpt lat="47.07768" lon="6.6544">
        <ele>1053.5</ele>
      </trkpt>
      <trkpt lat="47.07777" lon="6.65435">
        <ele>1053.4</ele>
      </trkpt>
      <trkpt lat="47.07786" lon="6.6543">
        <ele>1053.3</ele>
      </trkpt>
      <trkpt lat="47.0783" lon="6.65426">
        <ele>1051.5</ele>
      </trkpt>
      <trkpt lat="47.07861" lon="6.65302">
        <ele>1043.7</ele>
      </trkpt>
      <trkpt lat="47.07872" lon="6.6526">
        <ele>1042.8</ele>
      </trkpt>
      <trkpt lat="47.07884" lon="6.65252">
        <ele>1042.3</ele>
      </trkpt>
      <trkpt lat="47.07901" lon="6.65242">
        <ele>1040.8</ele>
      </trkpt>
      <trkpt lat="47.07978" lon="6.65217">
        <ele>1041.4</ele>
      </trkpt>
      <trkpt lat="47.07998" lon="6.6521">
        <ele>1041.7</ele>
      </trkpt>
      <trkpt lat="47.08014" lon="6.65208">
        <ele>1044</ele>
      </trkpt>
      <trkpt lat="47.08019" lon="6.65203">
        <ele>1044</ele>
      </trkpt>
      <trkpt lat="47.08069" lon="6.65128">
        <ele>1038.1</ele>
      </trkpt>
      <trkpt lat="47.08064" lon="6.65063">
        <ele>1028.1</ele>
      </trkpt>
      <trkpt lat="47.08082" lon="6.65052">
        <ele>1025.8</ele>
      </trkpt>
      <trkpt lat="47.08103" lon="6.65057">
        <ele>1025.7</ele>
      </trkpt>
      <trkpt lat="47.08128" lon="6.65052">
        <ele>1023.6</ele>
      </trkpt>
      <trkpt lat="47.08147" lon="6.65034">
        <ele>1020</ele>
      </trkpt>
      <trkpt lat="47.0816" lon="6.64976">
        <ele>1001.5</ele>
      </trkpt>
      <trkpt lat="47.08176" lon="6.6485">
        <ele>991.9</ele>
      </trkpt>
      <trkpt lat="47.08182" lon="6.64765">
        <ele>983.5</ele>
      </trkpt>
      <trkpt lat="47.08187" lon="6.64711">
        <ele>981.7</ele>
      </trkpt>
      <trkpt lat="47.08193" lon="6.64652">
        <ele>975.3</ele>
      </trkpt>
      <trkpt lat="47.08183" lon="6.64616">
        <ele>969.7</ele>
      </trkpt>
      <trkpt lat="47.08154" lon="6.64548">
        <ele>960</ele>
      </trkpt>
      <trkpt lat="47.08125" lon="6.64467">
        <ele>949.1</ele>
      </trkpt>
      <trkpt lat="47.08111" lon="6.64433">
        <ele>945.1</ele>
      </trkpt>
      <trkpt lat="47.08111" lon="6.64429">
        <ele>944.6</ele>
      </trkpt>
      <trkpt lat="47.08121" lon="6.64368">
        <ele>937.7</ele>
      </trkpt>
      <trkpt lat="47.08126" lon="6.64351">
        <ele>936.3</ele>
      </trkpt>
      <trkpt lat="47.0814" lon="6.64279">
        <ele>930.8</ele>
      </trkpt>
      <trkpt lat="47.08158" lon="6.64257">
        <ele>929.1</ele>
      </trkpt>
      <trkpt lat="47.08175" lon="6.64202">
        <ele>925.6</ele>
      </trkpt>
      <trkpt lat="47.08171" lon="6.64189">
        <ele>924.8</ele>
      </trkpt>
      <trkpt lat="47.08123" lon="6.64132">
        <ele>921.2</ele>
      </trkpt>
      <trkpt lat="47.08118" lon="6.64083">
        <ele>917.1</ele>
      </trkpt>
      <trkpt lat="47.08146" lon="6.64037">
        <ele>916</ele>
      </trkpt>
      <trkpt lat="47.08198" lon="6.63982">
        <ele>913.8</ele>
      </trkpt>
      <trkpt lat="47.08267" lon="6.63951">
        <ele>913.6</ele>
      </trkpt>
      <trkpt lat="47.08299" lon="6.63938">
        <ele>914.1</ele>
      </trkpt>
      <trkpt lat="47.08325" lon="6.63921">
        <ele>914.3</ele>
      </trkpt>
      <trkpt lat="47.08337" lon="6.63898">
        <ele>914.1</ele>
      </trkpt>
      <trkpt lat="47.0834" lon="6.63871">
        <ele>913.4</ele>
      </trkpt>
      <trkpt lat="47.08338" lon="6.63831">
        <ele>911.4</ele>
      </trkpt>
      <trkpt lat="47.08345" lon="6.63787">
        <ele>908.8</ele>
      </trkpt>
      <trkpt lat="47.08365" lon="6.63758">
        <ele>908.4</ele>
      </trkpt>
      <trkpt lat="47.08407" lon="6.63743">
        <ele>907.9</ele>
      </trkpt>
      <trkpt lat="47.08468" lon="6.63742">
        <ele>907.9</ele>
      </trkpt>
      <trkpt lat="47.08489" lon="6.63759">
        <ele>907.6</ele>
      </trkpt>
      <trkpt lat="47.08532" lon="6.63686">
        <ele>908.7</ele>
      </trkpt>
      <trkpt lat="47.08586" lon="6.63544">
        <ele>915.4</ele>
      </trkpt>
      <trkpt lat="47.08577" lon="6.63464">
        <ele>919.8</ele>
      </trkpt>
      <trkpt lat="47.08567" lon="6.63384">
        <ele>922</ele>
      </trkpt>
      <trkpt lat="47.08567" lon="6.63347">
        <ele>925.6</ele>
      </trkpt>
      <trkpt lat="47.08567" lon="6.63341">
        <ele>926.2</ele>
      </trkpt>
      <trkpt lat="47.08568" lon="6.63321">
        <ele>928</ele>
      </trkpt>
      <trkpt lat="47.08568" lon="6.63311">
        <ele>928.7</ele>
      </trkpt>
      <trkpt lat="47.08569" lon="6.63298">
        <ele>929.6</ele>
      </trkpt>
      <trkpt lat="47.08569" lon="6.63291">
        <ele>930.1</ele>
      </trkpt>
      <trkpt lat="47.08562" lon="6.63245">
        <ele>932.9</ele>
      </trkpt>
      <trkpt lat="47.08561" lon="6.63228">
        <ele>933.9</ele>
      </trkpt>
      <trkpt lat="47.0854" lon="6.63192">
        <ele>934.5</ele>
      </trkpt>
      <trkpt lat="47.0852" lon="6.63157">
        <ele>934.3</ele>
      </trkpt>
      <trkpt lat="47.08514" lon="6.63147">
        <ele>934.2</ele>
      </trkpt>
      <trkpt lat="47.08454" lon="6.63038">
        <ele>932.4</ele>
      </trkpt>
      <trkpt lat="47.08436" lon="6.63008">
        <ele>931.2</ele>
      </trkpt>
      <trkpt lat="47.08429" lon="6.62998">
        <ele>930.8</ele>
      </trkpt>
      <trkpt lat="47.08423" lon="6.6299">
        <ele>930</ele>
      </trkpt>
      <trkpt lat="47.08417" lon="6.62979">
        <ele>929.6</ele>
      </trkpt>
      <trkpt lat="47.08411" lon="6.62946">
        <ele>929.8</ele>
      </trkpt>
      <trkpt lat="47.08411" lon="6.62894">
        <ele>933.4</ele>
      </trkpt>
      <trkpt lat="47.08415" lon="6.62827">
        <ele>936</ele>
      </trkpt>
      <trkpt lat="47.08414" lon="6.6281">
        <ele>936.5</ele>
      </trkpt>
      <trkpt lat="47.08403" lon="6.62798">
        <ele>933.8</ele>
      </trkpt>
      <trkpt lat="47.08386" lon="6.62777">
        <ele>933.8</ele>
      </trkpt>
      <trkpt lat="47.08376" lon="6.62763">
        <ele>933.6</ele>
      </trkpt>
      <trkpt lat="47.08369" lon="6.62746">
        <ele>936.1</ele>
      </trkpt>
      <trkpt lat="47.08381" lon="6.627">
        <ele>937.3</ele>
      </trkpt>
      <trkpt lat="47.08393" lon="6.62651">
        <ele>939.7</ele>
      </trkpt>
      <trkpt lat="47.08407" lon="6.62618">
        <ele>940.3</ele>
      </trkpt>
      <trkpt lat="47.08399" lon="6.62593">
        <ele>940.8</ele>
      </trkpt>
      <trkpt lat="47.08386" lon="6.62582">
        <ele>941.8</ele>
      </trkpt>
      <trkpt lat="47.08376" lon="6.62555">
        <ele>941.9</ele>
      </trkpt>
      <trkpt lat="47.08337" lon="6.62444">
        <ele>944.7</ele>
      </trkpt>
    </trkseg>
  </trk>
</gpx>